Flight Track Log - Related Links

Times and Time Zones

All times are in EDT time to prevent confusion due to time zone crossing. See the UAL481 flight status page for this flight to view local times or setup timezone preferences in your user account.

Time Position Orientation Groundspeed Altitude Reporting Facility
EDT Latitude Longitude Course Direction KTS MPH feet Rate Location/Type
Wed 19:56:12 42.7236 -73.8081 324° Northwest 172 198 1,300  Level Boston Center
Wed 19:57:19 42.7103 -73.8642 252° West 235 270 3,100 2,384 Climbing Boston Center
Wed 19:58:43 42.7842 -73.9592 317° Northwest 277 319 7,300 3,208 Climbing Boston Center
Wed 19:59:43 42.8436 -74.0286 319° Northwest 277 319 10,800 2,600 Climbing Boston Center
Wed 20:00:00 42.8467 -74.4131 283° West  Level FlightAware Approximate
Wed 20:00:43 42.9072 -74.1097 317° Northwest 293 337 12,500  Level Boston Center
Wed 20:01:00 42.8693 -74.5359 324° Northwest  Level FlightAware Approximate
Wed 20:01:43 42.9786 -74.1997 317° Northwest 358 412 15,300  Level Boston Center
Wed 20:02:43 43.0264 -74.3458 294° West 392 451 18,600 3,100 Climbing Boston Center
Wed 20:03:43 43.0364 -74.4911 275° West 399 459 21,500 2,200 Climbing Boston Center
Wed 20:04:43 43.0503 -74.6422 277° West 409 471 23,000 1,400 Climbing Boston Center
Wed 20:05:43 43.0617 -74.8017 276° West 414 476 24,300 1,364 Climbing Boston Center
Wed 20:06:55 43.0778 -75.0156 276° West 428 493 26,000 1,636 Climbing Boston Center
Wed 20:07:55 43.0906 -75.1894 276° West 447 514 27,900 1,550 Climbing Boston Center
Wed 20:08:55 43.1031 -75.3522 276° West 447 514 29,100 1,050 Climbing Boston Center
Wed 20:09:55 43.1133 -75.5206 275° West 447 514 30,000 900 Climbing Boston Center
Wed 20:10:55 43.1253 -75.6833 276° West 447 514 30,900 1,050 Climbing Boston Center
Wed 20:11:55 43.1372 -75.8519 276° West 441 507 32,100 1,200 Climbing Boston Center
Wed 20:13:35 43.1333 -76.0833 269° West 430 495 34,100 750 Climbing Toronto Center
Wed 20:14:35 43.1500 -76.2500 278° West 430 495 34,100  Level Toronto Center
Wed 20:15:35 43.1500 -76.4167 270° West 440 506 34,100  Level Toronto Center
Wed 20:16:35 43.1333 -76.6000 263° West 440 506 34,100  Level Toronto Center
Wed 20:17:35 43.1500 -76.7500 279° West 440 506 34,100  Level Toronto Center
Wed 20:18:35 43.1500 -76.9167 270° West 440 506 34,100  Level Toronto Center
Wed 20:19:59 43.1583 -77.1792 273° West 443 510 34,100  Level Cleveland Center
Wed 20:20:59 43.1569 -77.3472 269° West 443 510 34,100 -50 Level Cleveland Center
Wed 20:21:58 43.1553 -77.5153 269° West 443 510 34,000  Descending Cleveland Center
Wed 20:22:59 43.1533 -77.6775 269° West 443 510 34,100 50 Climbing Cleveland Center
Wed 20:23:59 43.1531 -77.8456 270° West 443 510 34,100  Level Cleveland Center
Wed 20:24:58 43.1506 -78.0078 269° West 443 510 34,100  Level Cleveland Center
Wed 20:25:59 43.1458 -78.1758 268° West 443 510 34,100  Level Cleveland Center
Wed 20:26:59 43.1431 -78.3411 269° West 443 510 34,100  Level Cleveland Center
Wed 20:27:59 43.1378 -78.5092 268° West 443 510 34,100  Level Cleveland Center
Wed 20:28:59 43.1344 -78.6744 268° West 443 510 34,100  Level Cleveland Center
Wed 20:29:58 43.1308 -78.8450 268° West 443 510 34,100  Level Cleveland Center
Wed 20:30:35 43.1167 -78.9333 258° West 440 506 34,100  Level Toronto Center
Wed 20:31:35 43.1167 -79.0833 270° West 440 506 34,100  Level Toronto Center
Wed 20:32:35 43.1000 -79.2500 262° West 440 506 34,100 -50 Level Toronto Center
Wed 20:33:35 43.1000 -79.4333 270° West 440 506 34,000  Descending Toronto Center
Wed 20:34:35 43.1000 -79.5833 270° West 440 506 34,100 50 Climbing Toronto Center
Wed 20:35:35 43.0833 -79.7667 263° West 430 495 34,100  Level Toronto Center
Wed 20:36:35 43.0833 -79.9333 270° West 430 495 34,100  Level Toronto Center
Wed 20:37:35 43.0833 -80.0833 270° West 430 495 34,100  Level Toronto Center
Wed 20:38:35 43.0667 -80.2500 262° West 430 495 34,100 -50 Level Toronto Center
Wed 20:39:35 43.0667 -80.4167 270° West 430 495 34,000  Descending Toronto Center
Wed 20:40:35 43.0500 -80.5667 261° West 430 495 34,100 50 Climbing Toronto Center
Wed 20:41:35 43.0500 -80.7500 270° West 440 506 34,100 -50 Level Toronto Center
Wed 20:42:35 43.0333 -80.9167 262° West 440 506 34,000  Descending Toronto Center
Wed 20:43:35 43.0167 -81.1000 263° West 440 506 34,100 50 Climbing Toronto Center
Wed 20:44:35 43.0167 -81.2500 270° West 440 506 34,100  Level Toronto Center
Wed 20:45:35 43.0167 -81.4167 270° West 440 506 34,100 -50 Level Toronto Center
Wed 20:46:35 43.0167 -81.6000 270° West 440 506 34,000  Descending Toronto Center
Wed 20:47:35 43.0167 -81.7500 270° West 450 518 34,100 50 Climbing Toronto Center
Wed 20:48:35 43.0000 -81.9333 263° West 450 518 34,100  Level Toronto Center
Wed 20:49:35 43.0000 -82.1000 270° West 450 518 34,100  Level Toronto Center
Wed 20:50:35 43.0000 -82.2500 270° West 440 506 34,100  Level Toronto Center
Wed 20:51:35 43.0000 -82.4333 270° West 440 506 34,100  Level Toronto Center
Wed 20:52:35 43.0000 -82.6000 270° West 440 506 34,100  Level Toronto Center
Wed 20:53:11 43.0014 -82.7039 271° West 441 507 34,100 -63 Level Cleveland Center
Wed 20:54:11 42.9961 -82.8711 268° West 441 507 34,000  Descending Cleveland Center
Wed 20:55:11 42.9906 -83.0411 267° West 441 507 34,100  Climbing Cleveland Center
Wed 20:56:11 42.9867 -83.2086 268° West 441 507 34,000 -500 Descending Cleveland Center
Wed 20:57:11 42.9808 -83.3758 267° West 441 507 33,100 -950 Descending Cleveland Center
Wed 20:58:11 42.9744 -83.5458 267° West 448 516 32,100 -500 Descending Cleveland Center
Wed 20:59:11 42.9678 -83.7158 267° West 448 516 32,100  Level Cleveland Center
Wed 21:00:11 42.9528 -83.8853 263° West 453 521 32,100 -50 Level Cleveland Center
Wed 21:01:11 42.9372 -84.0544 263° West 458 527 32,000  Descending Cleveland Center
Wed 21:02:11 42.9194 -84.2267 262° West 458 527 32,100 50 Climbing Cleveland Center
Wed 21:03:11 42.9044 -84.3731 262° West 463 533 32,100  Level Cleveland Center
Wed 21:04:11 42.8883 -84.5394 263° West 457 526 32,100  Level Cleveland Center
Wed 21:05:37 42.8617 -84.8000 262° West 452 520 32,100  Level Chicago Center
Wed 21:06:39 42.8447 -84.9678 262° West 448 516 32,100 -144 Level Chicago Center
Wed 21:07:42 42.8261 -85.1358 261° West 448 516 31,800 -816 Descending Chicago Center
Wed 21:08:44 42.8083 -85.3033 262° West 447 514 30,400 -1,500 Descending Chicago Center
Wed 21:09:46 42.7894 -85.4719 261° West 449 517 28,700 -1,790 Descending Chicago Center
Wed 21:10:48 42.7608 -85.6397 257° West 452 520 26,700 -2,129 Descending Chicago Center
Wed 21:11:50 42.7253 -85.8350 256° West 442 509 24,300 -2,032 Descending Chicago Center
Wed 21:12:52 42.6975 -85.9906 256° West 424 488 22,500 -1,645 Descending Chicago Center
Wed 21:13:54 42.6700 -86.1400 256° West 410 472 20,900 -1,210 Descending Chicago Center
Wed 21:14:56 42.6439 -86.2867 256° West 400 460 20,000 -1,065 Descending Chicago Center
Wed 21:15:58 42.6161 -86.4286 255° West 390 449 18,700 -1,500 Descending Chicago Center
Wed 21:17:00 42.5894 -86.5714 256° West 390 449 16,900 -1,694 Descending Chicago Center
Wed 21:18:02 42.5625 -86.7106 255° West 384 442 15,200 -1,824 Descending Chicago Center
Wed 21:19:05 42.5222 -86.8708 251° West 378 435 13,100 -1,968 Descending Chicago Center
Wed 21:20:07 42.4858 -87.0003 249° West 371 427 11,100 -1,500 Descending Chicago Center
Wed 21:21:09 42.4511 -87.1217 249° West 355 409 10,000 -919 Descending Chicago Center
Wed 21:22:11 42.4225 -87.2289 250° West 318 366 9,200 -1,161 Descending Chicago Center
Wed 21:23:13 42.3761 -87.3142 234° Southwest 305 351 7,600 -1,597 Descending Chicago Center
Wed 21:24:15 42.2839 -87.3486 195° South 293 337 5,900 -1,258 Descending Chicago Center
Wed 21:25:17 42.2075 -87.3700 192° South 282 325 5,000 -871 Descending Chicago Center
Wed 21:26:19 42.1294 -87.3764 183° South 279 321 4,100 -484 Descending Chicago Center
Wed 21:27:21 42.0558 -87.3853 185° South 273 314 4,000 -48 Descending Chicago Center
Wed 21:28:23 42.0092 -87.4300 215° Southwest 238 274 4,000  Level Chicago Center
Wed 21:29:26 42.0028 -87.5269 265° West 221 254 4,000  Level Chicago Center
Wed 21:30:28 42.0022 -87.6072 269° West 220 253 4,000  Level Chicago Center

Login

Don't have an account? Register now (free) for customized features, flight alerts, and more!